Date,TemperatureHighF,TemperatureAvgF,TemperatureLowF,DewpointHighF,DewpointAvgF,DewpointLowF,HumidityHigh,HumidityAvg,HumidityLow,PressureMaxIn,PressureMinIn,WindSpeedMaxMPH,WindSpeedAvgMPH,GustSpeedMaxMPH,PrecipitationSumIn
2013-10-1,77.5,66.8,58.6,68.1,62.4,58.6,100,87,61,30.00,29.91,9,1,9,0.01
2013-10-2,79.5,70.1,64.4,69.3,65.8,62.2,98,87,69,30.03,29.94,7,1,9,0.00
2013-10-3,81.7,71.4,64.4,75.1,68.2,63.8,100,90,69,30.03,29.94,15,1,50,0.10
2013-10-4,80.2,73.7,69.4,71.1,70.1,68.9,100,89,70,30.00,29.94,6,1,13,0.00
2013-10-5,80.6,72.8,68.4,76.5,71.8,68.4,100,97,69,30.00,29.88,8,0,50,0.27
2013-10-6,79.9,73.4,60.3,74.0,70.1,60.3,100,91,68,29.88,29.61,10,4,15,0.98
2013-10-7,60.6,56.4,50.2,60.6,51.6,47.2,100,85,65,30.03,29.67,15,5,18,0.27
2013-10-8,68.7,63.4,57.7,53.8,50.8,46.8,84,65,49,30.23,30.17,6,1,9,0.00
2013-10-9,70.9,61.9,48.6,53.5,50.4,48.6,100,68,50,30.26,30.14,8,3,14,0.00
2013-10-10,69.3,60.1,46.9,53.1,50.2,44.9,98,72,49,30.14,30.03,6,2,9,0.01
2013-10-11,73.6,61.2,47.5,58.9,54.3,46.9,99,80,49,30.08,30.00,8,1,9,0.00
2013-10-12,77.7,64.2,52.2,66.2,59.1,51.6,99,85,64,30.06,30.00,5,1,10,0.00
2013-10-13,70.7,65.4,58.5,66.2,62.2,55.8,97,89,80,30.23,30.06,7,1,10,0.03
2013-10-14,66.6,57.1,49.6,58.0,51.7,46.5,100,83,61,30.29,30.17,13,3,15,0.00
2013-10-15,65.3,56.7,46.8,64.2,55.2,45.1,100,95,88,30.17,29.88,6,0,7,0.00
2013-10-16,72.7,65.4,54.9,69.4,63.9,53.2,100,95,84,29.85,29.73,7,1,10,0.72
2013-10-17,61.3,54.9,51.3,54.7,51.8,49.0,99,90,69,29.82,29.73,10,3,14,0.20
2013-10-18,63.7,54.3,45.5,50.3,47.9,44.9,98,80,59,29.91,29.82,10,3,28,0.00
2013-10-19,53.8,48.1,43.3,48.4,46.4,43.3,100,94,78,29.85,29.70,9,1,15,0.30
2013-10-20,60.4,49.8,41.4,46.2,42.7,39.7,99,78,55,29.91,29.82,14,3,18,0.01
2013-10-21,66.2,56.0,48.7,52.6,45.3,41.3,96,68,49,29.91,29.76,15,4,21,0.03
2013-10-22,51.8,46.8,40.6,37.0,35.3,33.6,80,65,51,29.91,29.82,10,5,15,0.16
2013-10-23,47.5,42.3,37.9,44.5,39.0,35.0,100,88,68,29.82,29.73,12,3,14,0.20
2013-10-24,45.7,41.0,35.4,38.6,35.7,33.0,100,82,67,30.06,29.94,13,5,18,0.00
2013-10-25,49.6,40.3,34.3,40.8,35.8,31.0,100,85,55,30.23,30.06,13,4,18,0.13
2013-10-26,47.1,41.1,37.0,41.7,33.0,28.9,100,73,59,30.11,29.79,16,8,28,0.00
2013-10-27,51.8,42.8,34.3,42.6,38.4,34.3,100,86,57,30.03,29.91,9,2,13,0.00
2013-10-28,57.6,44.0,33.1,45.5,39.6,32.8,100,86,61,30.23,30.00,9,1,11,0.00
2013-10-29,59.9,52.5,41.5,46.4,42.5,39.1,100,70,52,30.32,30.20,5,2,8,0.09
2013-10-30,68.4,57.9,39.4,55.2,50.0,39.1,100,76,61,30.14,30.00,5,1,8,0.00
2013-10-31,67.5,63.9,61.5,63.1,61.4,58.7,100,92,74,29.76,29.26,20,13,23,0.47